sensor_id;sensor_type;location;lat;lon;timestamp;pressure;altitude;pressure_sealevel;temperature;humidity
46382;BME280;66809;52.974;-2.514;2023-03-21T00:01:50;1001.8795253266649;;;9.564405086536874;43.812437276707485
46382;BME280;66809;52.974;-2.514;2023-03-21T00:03:50;1001.8544807413758;;;9.554043371858514;43.83067296859302
46382;BME280;66809;52.974;-2.514;2023-03-21T00:05:50;1001.8302434326581;;;9.547000451346719;43.83982276555186
46382;BME280;66809;52.974;-2.514;2023-03-21T00:07:49;1001.8085623533667;;;9.534271403638947;43.83889415451778
46382;BME280;66809;52.974;-2.514;2023-03-21T00:09:52;1001.7879600303078;;;9.522138901505006;43.83914218296541
46382;BME280;66809;52.974;-2.514;2023-03-21T00:11:50;1001.7677519394056;;;9.508588493734063;43.8293259632974
46382;BME280;66809;52.974;-2.514;2023-03-21T00:13:49;1001.7482127012574;;;9.499659190476242;43.80798258187139
46382;BME280;66809;52.974;-2.514;2023-03-21T00:15:50;1001.7275881722685;;;9.498264456886625;43.780096424521965
46382;BME280;66809;52.974;-2.514;2023-03-21T00:17:49;1001.7071995715877;;;9.496121944636968;43.75621933445715
46382;BME280;66809;52.974;-2.514;2023-03-21T00:19:52;1001.6895206294895;;;9.502076934806782;43.719537962975025
46382;BME280;66809;52.974;-2.514;2023-03-21T00:21:50;1001.6730390214599;;;9.507891125601862;43.683069702299726
46382;BME280;66809;52.974;-2.514;2023-03-21T00:23:50;1001.6566506786205;;;9.51421783963915;43.643276559120885
46382;BME280;66809;52.974;-2.514;2023-03-21T00:25:50;1001.6412772734844;;;9.51800714591141;43.6066058997987
46382;BME280;66809;52.974;-2.514;2023-03-21T00:27:50;1001.6251343051026;;;9.52026728621073;43.57012530661682
46382;BME280;66809;52.974;-2.514;2023-03-21T00:29:50;1001.6069109837647;;;9.523653296336937;43.53736630104857
46382;BME280;66809;52.974;-2.514;2023-03-21T00:31:50;1001.5856748689852;;;9.52998841057094;43.49855355564823
46382;BME280;66809;52.974;-2.514;2023-03-21T00:33:50;1001.5653663713709;;;9.541413110279425;43.46052156483722
46382;BME280;66809;52.974;-2.514;2023-03-21T00:35:51;1001.5467708112394;;;9.550100789429512;43.42073666630719
46382;BME280;66809;52.974;-2.514;2023-03-21T00:37:49;1001.5292876343505;;;9.562829831870301;43.3844917048113
46382;BME280;66809;52.974;-2.514;2023-03-21T00:39:50;1001.5124417579357;;;9.577138450511715;43.33905451281177
46382;BME280;66809;52.974;-2.514;2023-03-21T00:41:50;1001.4918139633063;;;9.591539488834542;43.287162097431086
46382;BME280;66809;52.974;-2.514;2023-03-21T00:43:49;1001.4730407634332;;;9.594641857543166;43.23701261296925
46382;BME280;66809;52.974;-2.514;2023-03-21T00:45:50;1001.4540590707071;;;9.590752834598868;43.180894059376655
46382;BME280;66809;52.974;-2.514;2023-03-21T00:47:50;1001.4351524867426;;;9.592216811632708;43.13279575325562
46382;BME280;66809;52.974;-2.514;2023-03-21T00:49:49;1001.4181324878878;;;9.60180441775971;43.08694234626489
46382;BME280;66809;52.974;-2.514;2023-03-21T00:51:50;1001.3985282539368;;;9.606349897350352;43.04627649917505
46382;BME280;66809;52.974;-2.514;2023-03-21T00:53:50;1001.3766454198956;;;9.611676763859851;43.0081522161687
46382;BME280;66809;52.974;-2.514;2023-03-21T00:55:50;1001.3525574182903;;;9.605737653722409;42.96884686141349
46382;BME280;66809;52.974;-2.514;2023-03-21T00:57:50;1001.324783137667;;;9.610551999732282;42.931207734837315
46382;BME280;66809;52.974;-2.514;2023-03-21T00:59:50;1001.2952648647527;;;9.615820052887662;42.89493851598886
46382;BME280;66809;52.974;-2.514;2023-03-21T01:01:50;1001.2671216335837;;;9.619449716466388;42.857588342156255
46382;BME280;66809;52.974;-2.514;2023-03-21T01:03:50;1001.2413668179347;;;9.62428086745021;42.820240240143406
46382;BME280;66809;52.974;-2.514;2023-03-21T01:05:50;1001.2138149208131;;;9.624642153522366;42.78620266787825
46382;BME280;66809;52.974;-2.514;2023-03-21T01:07:50;1001.185101542657;;;9.623482677480817;42.75969165776832
46382;BME280;66809;52.974;-2.514;2023-03-21T01:09:49;1001.1572826137973;;;9.621634238163413;42.734549186541024
46382;BME280;66809;52.974;-2.514;2023-03-21T01:11:51;1001.1286324643589;;;9.626892787534882;42.715166114712574
46382;BME280;66809;52.974;-2.514;2023-03-21T01:13:50;1001.0983204879632;;;9.621496673987897;42.707896237253564
46382;BME280;66809;52.974;-2.514;2023-03-21T01:15:52;1001.0665020943445;;;9.61076732116861;42.70561404761743
46382;BME280;66809;52.974;-2.514;2023-03-21T01:17:50;1001.0338919932962;;;9.6059118940365;42.70147292313729
46382;BME280;66809;52.974;-2.514;2023-03-21T01:19:50;1000.9997884673836;;;9.588353744024735;42.703196383691825
46382;BME280;66809;52.974;-2.514;2023-03-21T01:21:50;1000.9650896567331;;;9.572574785899855;42.70432359919176
46382;BME280;66809;52.974;-2.514;2023-03-21T01:23:50;1000.9305113409144;;;9.556695001674676;42.704962633779544
46382;BME280;66809;52.974;-2.514;2023-03-21T01:25:51;1000.8947387692216;;;9.55413424262264;42.70316135748282
46382;BME280;66809;52.974;-2.514;2023-03-21T01:27:50;1000.8592322498748;;;9.55111977999249;42.701066091768624
46382;BME280;66809;52.974;-2.514;2023-03-21T01:29:50;1000.8248160866658;;;9.538526114871496;42.693285280987084
46382;BME280;66809;52.974;-2.514;2023-03-21T01:31:50;1000.7924840660778;;;9.517991637242739;42.69293246348611
46382;BME280;66809;52.974;-2.514;2023-03-21T01:33:50;1000.7609276354615;;;9.50069285386388;42.68827104505812
46382;BME280;66809;52.974;-2.514;2023-03-21T01:35:50;1000.7297595585126;;;9.48044497302083;42.685948014330414
46382;BME280;66809;52.974;-2.514;2023-03-21T01:37:50;1000.697327931317;;;9.463211384210833;42.68420361454772
46382;BME280;66809;52.974;-2.514;2023-03-21T01:39:50;1000.6660956603413;;;9.4355184068964;42.69331969936024
46382;BME280;66809;52.974;-2.514;2023-03-21T01:41:50;1000.6406813182308;;;9.410379633446134;42.70938907076505
46382;BME280;66809;52.974;-2.514;2023-03-21T01:43:50;1000.6144938635761;;;9.396489116277175;42.72498532817913
46382;BME280;66809;52.974;-2.514;2023-03-21T01:46:56;1000.589960414208;;;9.391875329360367;42.743234419010705
46382;BME280;66809;52.974;-2.514;2023-03-21T01:47:50;1000.5648364817599;;;9.387211130822108;42.75375510518564
46382;BME280;66809;52.974;-2.514;2023-03-21T01:49:52;1000.5392186006022;;;9.380339237547268;42.762032456057476
46382;BME280;66809;52.974;-2.514;2023-03-21T01:51:52;1000.5121676102559;;;9.36821516770358;42.76659347553039
46382;BME280;66809;52.974;-2.514;2023-03-21T01:53:50;1000.4852451238132;;;9.35355369652647;42.77017124863267
46382;BME280;66809;52.974;-2.514;2023-03-21T01:55:49;1000.4605792884225;;;9.341875864460551;42.780391677173924
46382;BME280;66809;52.974;-2.514;2023-03-21T01:57:53;1000.4376299637253;;;9.332758621421101;42.78776656783008
46382;BME280;66809;52.974;-2.514;2023-03-21T01:59:51;1000.4155340450496;;;9.312560248277256;42.80081179759292
46382;BME280;66809;52.974;-2.514;2023-03-21T02:01:51;1000.3933657418478;;;9.303546792263313;42.81385454220258
46382;BME280;66809;52.974;-2.514;2023-03-21T02:03:51;1000.3687943283572;;;9.280273293002706;42.82610670162043
46382;BME280;66809;52.974;-2.514;2023-03-21T02:05:54;1000.3461293447469;;;9.264108818358444;42.842466130739204
46382;BME280;66809;52.974;-2.514;2023-03-21T02:07:51;1000.3246504201882;;;9.249280262383989;42.85931690810356
46382;BME280;66809;52.974;-2.514;2023-03-21T02:09:51;1000.3028040668075;;;9.231073172962457;42.87783528608597
46382;BME280;66809;52.974;-2.514;2023-03-21T02:11:51;1000.2822335350781;;;9.210907480217083;42.89519171487212
46382;BME280;66809;52.974;-2.514;2023-03-21T02:13:49;1000.2640470396087;;;9.198497755319249;42.904342484767774
46382;BME280;66809;52.974;-2.514;2023-03-21T02:15:58;1000.2483200599927;;;9.188373368767255;42.913109121808276
46382;BME280;66809;52.974;-2.514;2023-03-21T02:17:53;1000.2348444260214;;;9.182500382704212;42.9210096591785
46382;BME280;66809;52.974;-2.514;2023-03-21T02:21:14;1000.2218297620371;;;9.183304952706099;42.92402873961612
46382;BME280;66809;52.974;-2.514;2023-03-21T02:22:10;1000.2081192073697;;;9.184851854643505;42.92831800115724
46382;BME280;66809;52.974;-2.514;2023-03-21T02:24:03;1000.1943728463807;;;9.182423680685739;42.93202645251493
46382;BME280;66809;52.974;-2.514;2023-03-21T02:26:19;1000.1796580690853;;;9.168298071970526;42.93426760138627
46382;BME280;66809;52.974;-2.514;2023-03-21T02:27:52;1000.164216489009;;;9.153559119558555;42.939733258318334
46382;BME280;66809;52.974;-2.514;2023-03-21T02:30:19;1000.1469032893234;;;9.147442482071755;42.94626484815158
46382;BME280;66809;52.974;-2.514;2023-03-21T02:31:55;1000.127231066499;;;9.15205409585361;42.960908123175344
46382;BME280;66809;52.974;-2.514;2023-03-21T02:34:20;1000.1060257980746;;;9.156111180574074;42.979459607164465
46382;BME280;66809;52.974;-2.514;2023-03-21T02:36:00;1000.0860907887436;;;9.145523753220688;42.99752568374273
46382;BME280;66809;52.974;-2.514;2023-03-21T02:37:51;1000.0662425869865;;;9.142241542960987;43.015103445926684
46382;BME280;66809;52.974;-2.514;2023-03-21T02:39:55;1000.0465912918796;;;9.143091089928731;43.028183273589384
46382;BME280;66809;52.974;-2.514;2023-03-21T02:41:55;1000.024621682134;;;9.134823554530492;43.040175593077585
46382;BME280;66809;52.974;-2.514;2023-03-21T02:43:53;1000.0030023605519;;;9.142922935472885;43.05109401433721
46382;BME280;66809;52.974;-2.514;2023-03-21T02:45:53;999.9804730237788;;;9.133411905337256;43.06269288440026
46382;BME280;66809;52.974;-2.514;2023-03-21T02:47:51;999.9579374206949;;;9.123615208919196;43.07429168460934
46382;BME280;66809;52.974;-2.514;2023-03-21T02:49:55;999.9339899711123;;;9.10995905517981;43.089397340496795
46382;BME280;66809;52.974;-2.514;2023-03-21T02:51:50;999.9104874230546;;;9.105247454258661;43.10702968660585
46382;BME280;66809;52.974;-2.514;2023-03-21T02:53:54;999.8880585668244;;;9.103659381837307;43.13237364060783
46382;BME280;66809;52.974;-2.514;2023-03-21T02:55:51;999.863576747473;;;9.102253196097482;43.153323111201715
46382;BME280;66809;52.974;-2.514;2023-03-21T02:57:51;999.8368532910226;;;9.096471603348935;43.173293590144134
46382;BME280;66809;52.974;-2.514;2023-03-21T02:59:51;999.8105832111012;;;9.101056979903621;43.194920646182915
46382;BME280;66809;52.974;-2.514;2023-03-21T03:01:51;999.7848839840506;;;9.079589034053383;43.2172320770317
46382;BME280;66809;52.974;-2.514;2023-03-21T03:03:50;999.7621476967165;;;9.085258265665669;43.235834003557684
46382;BME280;66809;52.974;-2.514;2023-03-21T03:05:54;999.7409040210875;;;9.088926872944826;43.256010122736235
46382;BME280;66809;52.974;-2.514;2023-03-21T03:08:00;999.7195029824146;;;9.094687564466938;43.2706276777475
46382;BME280;66809;52.974;-2.514;2023-03-21T03:10:00;999.6976361195826;;;9.101056155762677;43.28534100527155
46382;BME280;66809;52.974;-2.514;2023-03-21T03:11:57;999.6759627079034;;;9.111892577960669;43.29937073005438
46382;BME280;66809;52.974;-2.514;2023-03-21T03:14:02;999.6539063816941;;;9.102574803187858;43.31643481645553
46382;BME280;66809;52.974;-2.514;2023-03-21T03:15:56;999.6309962321645;;;9.099567850424728;43.3272495929252
46382;BME280;66809;52.974;-2.514;2023-03-21T03:17:53;999.6057015998439;;;9.084065270756804;43.33640065457764
46382;BME280;66809;52.974;-2.514;2023-03-21T03:20:00;999.5801333426531;;;9.07947873892029;43.34848558040884
46382;BME280;66809;52.974;-2.514;2023-03-21T03:21:56;999.5556521811395;;;9.071454855051364;43.35774388759436
46382;BME280;66809;52.974;-2.514;2023-03-21T03:23:52;999.529733150941;;;9.07371391255174;43.36768764665007
46382;BME280;66809;52.974;-2.514;2023-03-21T03:25:52;999.5037260081612;;;9.070134669099405;43.373737965556536
46382;BME280;66809;52.974;-2.514;2023-03-21T03:27:52;999.4785412837313;;;9.070311110702558;43.37598713275672
46382;BME280;66809;52.974;-2.514;2023-03-21T03:29:51;999.4548691241333;;;9.073628950643831;43.37513528860124
46382;BME280;66809;52.974;-2.514;2023-03-21T03:31:53;999.4335029247595;;;9.076091807244488;43.36041489580723
46382;BME280;66809;52.974;-2.514;2023-03-21T03:33:51;999.4130791564646;;;9.07553741375265;43.34501824519007
46382;BME280;66809;52.974;-2.514;2023-03-21T03:35:50;999.3933545252949;;;9.092072507758006;43.32551784202365
46382;BME280;66809;52.974;-2.514;2023-03-21T03:37:53;999.3747177894434;;;9.100354982287806;43.30084493734297
46382;BME280;66809;52.974;-2.514;2023-03-21T03:39:54;999.3555534984644;;;9.117177768033413;43.27539231251638
46382;BME280;66809;52.974;-2.514;2023-03-21T03:41:55;999.3374960367713;;;9.141224237193155;43.247308099870374
46382;BME280;66809;52.974;-2.514;2023-03-21T03:43:52;999.3199477435114;;;9.14789555181526;43.218631826123634
46382;BME280;66809;52.974;-2.514;2023-03-21T03:45:56;999.3028562313079;;;9.162875342812447;43.19219910354444
46382;BME280;66809;52.974;-2.514;2023-03-21T03:47:53;999.287602027201;;;9.178812959520814;43.172125521202325
46382;BME280;66809;52.974;-2.514;2023-03-21T03:49:54;999.274050422157;;;9.193929192704102;43.15148231136435
46382;BME280;66809;52.974;-2.514;2023-03-21T03:51:53;999.2617454039386;;;9.210546411464398;43.12547321705585
46382;BME280;66809;52.974;-2.514;2023-03-21T03:53:53;999.2490929484422;;;9.223930873085258;43.09771777585017
46382;BME280;66809;52.974;-2.514;2023-03-21T03:55:50;999.2359320380558;;;9.230805813526732;43.06946648718591
46382;BME280;66809;52.974;-2.514;2023-03-21T03:57:49;999.2237509099917;;;9.240554223478183;43.042107151705565
46382;BME280;66809;52.974;-2.514;2023-03-21T03:59:50;999.2114812993216;;;9.250269017320043;43.01260347165885
46382;BME280;66809;52.974;-2.514;2023-03-21T04:01:50;999.19810751267;;;9.272995377565676;42.98368331228642
46382;BME280;66809;52.974;-2.514;2023-03-21T04:03:50;999.1811255095979;;;9.281147397978339;42.96062784436439
46382;BME280;66809;52.974;-2.514;2023-03-21T04:05:50;999.1630623280493;;;9.287593828364093;42.92906401441902
46382;BME280;66809;52.974;-2.514;2023-03-21T04:07:50;999.1422176489301;;;9.29657860314;42.90100286523168
46382;BME280;66809;52.974;-2.514;2023-03-21T04:09:50;999.1213507111472;;;9.326185126919835;42.87196795996594
46382;BME280;66809;52.974;-2.514;2023-03-21T04:11:50;999.0990132276004;;;9.332901378160633;42.84663772055276
46382;BME280;66809;52.974;-2.514;2023-03-21T04:13:49;999.0750215481385;;;9.35330976535757;42.82384172979895
46382;BME280;66809;52.974;-2.514;2023-03-21T04:15:50;999.0495914138638;;;9.36582775947914;42.803965076957134
46382;BME280;66809;52.974;-2.514;2023-03-21T04:17:50;999.0238669965318;;;9.387774660410964;42.789653373934854
46382;BME280;66809;52.974;-2.514;2023-03-21T04:19:49;998.9991596417306;;;9.397200735831309;42.776605667166294
46382;BME280;66809;52.974;-2.514;2023-03-21T04:21:50;998.9745928080989;;;9.406475580317585;42.76189287339708
46382;BME280;66809;52.974;-2.514;2023-03-21T04:23:50;998.9517588948489;;;9.410526416914616;42.74766512173444
46382;BME280;66809;52.974;-2.514;2023-03-21T04:25:50;998.9307847590569;;;9.420012258094813;42.73576402703366
46382;BME280;66809;52.974;-2.514;2023-03-21T04:27:50;998.9107943885847;;;9.428111773111931;42.72835663911608
46382;BME280;66809;52.974;-2.514;2023-03-21T04:29:49;998.8918090801259;;;9.443976594917112;42.72602283860508
46382;BME280;66809;52.974;-2.514;2023-03-21T04:31:50;998.8721438346389;;;9.445783023136507;42.72544131158804
46382;BME280;66809;52.974;-2.514;2023-03-21T04:33:50;998.851352141368;;;9.446673634454429;42.72730218943039
46382;BME280;66809;52.974;-2.514;2023-03-21T04:35:49;998.8274599274897;;;9.452808019866778;42.73346522988334
46382;BME280;66809;52.974;-2.514;2023-03-21T04:37:50;998.8041410116547;;;9.455623617162713;42.74216237870482
46382;BME280;66809;52.974;-2.514;2023-03-21T04:39:50;998.7800237202292;;;9.450150962009145;42.75114944965999
46382;BME280;66809;52.974;-2.514;2023-03-21T04:41:50;998.7570045843378;;;9.44433678006383;42.76316558106702
46382;BME280;66809;52.974;-2.514;2023-03-21T04:43:50;998.7332095217116;;;9.439757691422479;42.77870628943925
46382;BME280;66809;52.974;-2.514;2023-03-21T04:45:50;998.7075329357046;;;9.438010076119031;42.78887468578954
46382;BME280;66809;52.974;-2.514;2023-03-21T04:47:50;998.6805922958964;;;9.434640875652692;42.794636500593235
46382;BME280;66809;52.974;-2.514;2023-03-21T04:49:50;998.6524999920732;;;9.429103960735533;42.796381942102826
46382;BME280;66809;52.974;-2.514;2023-03-21T04:51:50;998.6254419772722;;;9.4256843483131;42.80028532843751
46382;BME280;66809;52.974;-2.514;2023-03-21T04:53:50;998.5993677851332;;;9.423138543892604;42.79871332241415
46382;BME280;66809;52.974;-2.514;2023-03-21T04:55:50;998.5762002166028;;;9.423020915959569;42.79822402225209
46382;BME280;66809;52.974;-2.514;2023-03-21T04:57:50;998.5534439093805;;;9.419559295216967;42.79655195176402
46382;BME280;66809;52.974;-2.514;2023-03-21T04:59:50;998.5305142914383;;;9.41657658861238;42.79585902973734
46382;BME280;66809;52.974;-2.514;2023-03-21T05:01:50;998.5078567914383;;;9.415610359883885;42.79126014715234
46382;BME280;66809;52.974;-2.514;2023-03-21T05:03:50;998.4858684514472;;;9.415047426574576;42.781674511886834
46382;BME280;66809;52.974;-2.514;2023-03-21T05:05:49;998.4630141188467;;;9.413476254644713;42.775215551279565
46382;BME280;66809;52.974;-2.514;2023-03-21T05:07:50;998.4429097046171;;;9.408400520076157;42.769838440699615
46382;BME280;66809;52.974;-2.514;2023-03-21T05:09:50;998.4232372326945;;;9.387112059538342;42.7619156511323
46382;BME280;66809;52.974;-2.514;2023-03-21T05:11:50;998.4040474716268;;;9.3798938180466;42.74958937718304
46382;BME280;66809;52.974;-2.514;2023-03-21T05:13:50;998.3847638398801;;;9.37660864150994;42.733933625947515
46382;BME280;66809;52.974;-2.514;2023-03-21T05:15:50;998.366016949468;;;9.369752623943887;42.7281447521011
46382;BME280;66809;52.974;-2.514;2023-03-21T05:17:49;998.347922461468;;;9.355661562432545;42.7231323237767
46382;BME280;66809;52.974;-2.514;2023-03-21T05:19:50;998.3309217253051;;;9.348099777809718;42.72418388196793
46382;BME280;66809;52.974;-2.514;2023-03-21T05:21:50;998.3143195450765;;;9.340622010736892;42.71858873970486
46382;BME280;66809;52.974;-2.514;2023-03-21T05:23:50;998.2976611051241;;;9.329825459441766;42.71054036990941
46382;BME280;66809;52.974;-2.514;2023-03-21T05:25:50;998.2812906381924;;;9.329622728195611;42.70924004379538
46382;BME280;66809;52.974;-2.514;2023-03-21T05:27:50;998.263768714657;;;9.315809870596958;42.70773423826061
46382;BME280;66809;52.974;-2.514;2023-03-21T05:29:50;998.2452106794656;;;9.300148580703361;42.709447118848615
46382;BME280;66809;52.974;-2.514;2023-03-21T05:31:50;998.2256969441295;;;9.291689675890696;42.71466599820943
46382;BME280;66809;52.974;-2.514;2023-03-21T05:33:50;998.2077484815604;;;9.274592601914415;42.72554120830891
46382;BME280;66809;52.974;-2.514;2023-03-21T05:35:50;998.1896711868818;;;9.253041536110487;42.74003416386313
46382;BME280;66809;52.974;-2.514;2023-03-21T05:37:50;998.1709475599831;;;9.238339023573023;42.75619171390708
46382;BME280;66809;52.974;-2.514;2023-03-21T05:39:50;998.1512536852526;;;9.223703726760451;42.77469687246828
46382;BME280;66809;52.974;-2.514;2023-03-21T05:41:50;998.1307494392481;;;9.220485641551715;42.79115135485731
46382;BME280;66809;52.974;-2.514;2023-03-21T05:43:49;998.1109696112527;;;9.205539470750102;42.80232376206411
46382;BME280;66809;52.974;-2.514;2023-03-21T05:45:50;998.0927001146426;;;9.189097746863261;42.821018625189105
46382;BME280;66809;52.974;-2.514;2023-03-21T05:47:50;998.0724574615973;;;9.182846552324014;42.840297912822095
46382;BME280;66809;52.974;-2.514;2023-03-21T05:49:49;998.0533213028648;;;9.176578561186172;42.86543870844922
46382;BME280;66809;52.974;-2.514;2023-03-21T05:51:50;998.0343089700526;;;9.163263327557111;42.89076737131231
46382;BME280;66809;52.974;-2.514;2023-03-21T05:53:50;998.0150972536194;;;9.155382155830186;42.91952082562472
46382;BME280;66809;52.974;-2.514;2023-03-21T05:55:49;997.9943041245698;;;9.15087856770818;42.94604211570402
46382;BME280;66809;52.974;-2.514;2023-03-21T05:57:50;997.9748467296847;;;9.141661595119789;42.96517669710513
46382;BME280;66809;52.974;-2.514;2023-03-21T05:59:50;997.9562050668713;;;9.131194744208534;42.97014683548776
46382;BME280;66809;52.974;-2.514;2023-03-21T06:01:49;997.9381171336506;;;9.134641434945355;42.980975682207486
46382;BME280;66809;52.974;-2.514;2023-03-21T06:03:50;997.9204456238839;;;9.130104363561326;42.98673260315551
46382;BME280;66809;52.974;-2.514;2023-03-21T06:05:50;997.9021016504714;;;9.13110420037698;42.98761518675558
46382;BME280;66809;52.974;-2.514;2023-03-21T06:07:50;997.8817098705968;;;9.134885097066958;42.98058202881326
46382;BME280;66809;52.974;-2.514;2023-03-21T06:09:50;997.8607726274699;;;9.14041360924535;42.97032412190539
46382;BME280;66809;52.974;-2.514;2023-03-21T06:11:52;997.8406492891303;;;9.149765029288229;42.96232490253169
46382;BME280;66809;52.974;-2.514;2023-03-21T06:13:49;997.8227744923244;;;9.163729145863844;42.95453055932208
46382;BME280;66809;52.974;-2.514;2023-03-21T06:15:50;997.8052673691828;;;9.182910896548156;42.9363816312949
46382;BME280;66809;52.974;-2.514;2023-03-21T06:17:50;997.789295883278;;;9.206302050752749;42.90865579725728
46382;BME280;66809;52.974;-2.514;2023-03-21T06:19:49;997.7740484047974;;;9.228466515902905;42.87652660603473
46382;BME280;66809;52.974;-2.514;2023-03-21T06:21:50;997.7581991125521;;;9.250538565670547;42.85123526746422
46382;BME280;66809;52.974;-2.514;2023-03-21T06:23:50;997.741973075004;;;9.275702550228818;42.82721881861952
46382;BME280;66809;52.974;-2.514;2023-03-21T06:25:50;997.7256988771642;;;9.287334045879325;42.798118686931026
46382;BME280;66809;52.974;-2.514;2023-03-21T06:27:50;997.7110709594521;;;9.319144008242564;42.76472485532648
46382;BME280;66809;52.974;-2.514;2023-03-21T06:29:50;997.6965161965553;;;9.333250208089282;42.72283015987158
46382;BME280;66809;52.974;-2.514;2023-03-21T06:31:50;997.6828931099843;;;9.361302601760341;42.67713322129154
46382;BME280;66809;52.974;-2.514;2023-03-21T06:33:50;997.6709540780778;;;9.395180533433829;42.62588061104368
46382;BME280;66809;52.974;-2.514;2023-03-21T06:35:51;997.6604071374778;;;9.428453529049593;42.56866281639865
46382;BME280;66809;52.974;-2.514;2023-03-21T06:37:50;997.6514576395722;;;9.443998479753349;42.51174015451448
46382;BME280;66809;52.974;-2.514;2023-03-21T06:39:49;997.6442937495599;;;9.472650362556118;42.46205925059213
46382;BME280;66809;52.974;-2.514;2023-03-21T06:41:50;997.6354398321781;;;9.493663899879769;42.41580064525454
46382;BME280;66809;52.974;-2.514;2023-03-21T06:43:50;997.6286630876623;;;9.524405844338586;42.37638815623673
46382;BME280;66809;52.974;-2.514;2023-03-21T06:45:49;997.6246184110303;;;9.554803302824741;42.3356125229213
46382;BME280;66809;52.974;-2.514;2023-03-21T06:47:50;997.6246083820621;;;9.572500065260147;42.29670487667739
46382;BME280;66809;52.974;-2.514;2023-03-21T06:49:50;997.625481087151;;;9.599218545256837;42.24773368287063
46382;BME280;66809;52.974;-2.514;2023-03-21T06:51:49;997.625096783304;;;9.633404375626508;42.20366516423748
46382;BME280;66809;52.974;-2.514;2023-03-21T06:53:50;997.6245158656801;;;9.66497082407503;42.15920985094241
46382;BME280;66809;52.974;-2.514;2023-03-21T06:55:50;997.6239986607662;;;9.687744478672544;42.115327706075604
46382;BME280;66809;52.974;-2.514;2023-03-21T06:57:50;997.623514158175;;;9.72873153583109;42.081201415183564
46382;BME280;66809;52.974;-2.514;2023-03-21T06:59:50;997.622606918524;;;9.77362557830179;42.05880919154885
46382;BME280;66809;52.974;-2.514;2023-03-21T07:01:50;997.6198630262314;;;9.806016745267815;42.02674510419571
46382;BME280;66809;52.974;-2.514;2023-03-21T07:03:49;997.6166909399573;;;9.848803080153365;41.99514074116965
46382;BME280;66809;52.974;-2.514;2023-03-21T07:05:50;997.614843004121;;;9.883127709021558;41.963512102262435
46382;BME280;66809;52.974;-2.514;2023-03-21T07:07:50;997.6143657426093;;;9.920738463112846;41.933423978481684
46382;BME280;66809;52.974;-2.514;2023-03-21T07:09:50;997.6143574877098;;;9.951357833041586;41.903713817264496
46382;BME280;66809;52.974;-2.514;2023-03-21T07:11:50;997.6116327085393;;;9.978700410901139;41.87007904567709
46382;BME280;66809;52.974;-2.514;2023-03-21T07:13:51;997.6078925659842;;;10.007867135080904;41.8350597550583
46382;BME280;66809;52.974;-2.514;2023-03-21T07:15:51;997.6041543719198;;;10.02681606886873;41.799049459721026